^^
Saratoga-Weather Station Historical Data
Daily Summary for July 22, 2020 Units:  English    Metric   Both
Daily Weekly Monthly Yearly Custom
  High: Low: Average:
Temperature: 82.2 °F 56.3 °F 69.4 °F
Dew Point: 52.5 °F 44.8 °F 47.3 °F
Humidity: 68% 28% 48%
Wind Speed: 9mph 0mph 1.7mph
Wind Gust: 12mph - -
Wind- - SSW
Pressure: 30.2 in 30 in -
Precipitation: 0 in    
Historical Graphs
 
 
Tabular Data for July 22, 2020
Time Temperature Dew Point Pressure Wind Wind Speed Wind Gust Humidity Rainfall Rate (Hourly) solar
00:02 64.8 °F 45.1 °F 30.2 in SSW 0.9 mph 1 mph 49% 0 in 0 W/m2
00:07 64.6 °F 45.5 °F 30.2 in Calm   2 mph 50% 0 in 0 W/m2
00:12 64.2 °F 45.1 °F 30.2 in Calm   1 mph 50% 0 in 0 W/m2
00:17 64 °F 45.5 °F 30.2 in East 2 mph 2 mph 51% 0 in 0 W/m2
00:22 63.9 °F 45.3 °F 30.2 in Calm     51% 0 in 0 W/m2
00:27 63.3 °F 45 °F 30.2 in NE 0.9 mph 3 mph 51% 0 in 0 W/m2
00:32 63.3 °F 45 °F 30.2 in NE 0.9 mph 2 mph 51% 0 in 0 W/m2
00:37 63.1 °F 45.1 °F 30.2 in South 0.9 mph 3 mph 52% 0 in 0 W/m2
00:42 63.1 °F 45.1 °F 30.2 in Calm     52% 0 in 0 W/m2
00:47 62.8 °F 45.3 °F 30.2 in SSW 0.9 mph 3 mph 53% 0 in 0 W/m2
00:52 62.4 °F 45.1 °F 30.2 in Calm   2 mph 53% 0 in 0 W/m2
00:57 62.2 °F 45 °F 30.2 in WSW 0.9 mph 3 mph 53% 0 in 0 W/m2
01:02 62.2 °F 45 °F 30.2 in Calm   1 mph 53% 0 in 0 W/m2
01:07 62.2 °F 45 °F 30.2 in Calm   4 mph 53% 0 in 0 W/m2
01:12 62.1 °F 45.1 °F 30.2 in Calm   1 mph 54% 0 in 0 W/m2
01:17 62.1 °F 45.7 °F 30.2 in SE 0.9 mph 4 mph 55% 0 in 0 W/m2
01:22 61.9 °F 45.5 °F 30.2 in WSW 2.9 mph 3 mph 55% 0 in 0 W/m2
01:27 61.3 °F 45 °F 30.2 in NW 0.9 mph 2 mph 55% 0 in 0 W/m2
01:32 61.2 °F 45.3 °F 30.2 in Calm   1 mph 56% 0 in 0 W/m2
01:37 61 °F 45.7 °F 30.2 in Calm     57% 0 in 0 W/m2
01:42 60.6 °F 45.3 °F 30.2 in Calm   1 mph 57% 0 in 0 W/m2
01:47 60.3 °F 45.5 °F 30.2 in SSW 0.9 mph 2 mph 58% 0 in 0 W/m2
01:52 59.9 °F 45.5 °F 30.2 in SSW 0.9 mph 1 mph 59% 0 in 0 W/m2
01:57 59.5 °F 45.1 °F 30.2 in Calm   1 mph 59% 0 in 0 W/m2
02:03 59.4 °F 45.5 °F 30.2 in Calm   1 mph 60% 0 in 0 W/m2
02:08 59.2 °F 45.3 °F 30.2 in SSW 0.9 mph 1 mph 60% 0 in 0 W/m2
02:13 59 °F 45.5 °F 30.2 in SSW 0.9 mph 1 mph 61% 0 in 0 W/m2
02:18 58.6 °F 45.3 °F 30.2 in Calm   1 mph 61% 0 in 0 W/m2
02:23 58.6 °F 45.3 °F 30.2 in WSW 2 mph 2 mph 61% 0 in 0 W/m2
02:28 58.6 °F 45.3 °F 30.2 in West 6 mph 6 mph 61% 0 in 0 W/m2
02:33 59.2 °F 45.3 °F 30.2 in NW 2 mph 2 mph 60% 0 in 0 W/m2
02:38 59.5 °F 45.1 °F 30.2 in West 0.9 mph 2 mph 59% 0 in 0 W/m2
02:43 59.5 °F 45.1 °F 30.2 in SW 2 mph 3 mph 59% 0 in 0 W/m2
02:48 59.4 °F 45.5 °F 30.2 in WSW 0.9 mph 1 mph 60% 0 in 0 W/m2
02:53 59.4 °F 45.5 °F 30.2 in SW 3 mph 3 mph 60% 0 in 0 W/m2
02:58 59.2 °F 45.3 °F 30.2 in Calm   3 mph 60% 0 in 0 W/m2
03:03 58.8 °F 45 °F 30.2 in SW 0.9 mph 2 mph 60% 0 in 0 W/m2
03:08 58.8 °F 45.3 °F 30.2 in WSW 0.9 mph 4 mph 61% 0 in 0 W/m2
03:13 58.6 °F 45.3 °F 30.2 in WSW 0.9 mph 2 mph 61% 0 in 0 W/m2
03:18 58.6 °F 45.3 °F 30.2 in West 2 mph 3 mph 61% 0 in 0 W/m2
03:23 58.6 °F 45.3 °F 30.2 in West 0.9 mph 2 mph 61% 0 in 0 W/m2
03:28 58.5 °F 45.1 °F 30.2 in West 0.9 mph 2 mph 61% 0 in 0 W/m2
03:33 58.6 °F 45.3 °F 30.2 in Calm   1 mph 61% 0 in 0 W/m2
03:38 58.6 °F 45.3 °F 30.2 in Calm   1 mph 61% 0 in 0 W/m2
03:43 58.5 °F 45.5 °F 30.2 in Calm   1 mph 62% 0 in 0 W/m2
03:48 58.3 °F 45.3 °F 30.2 in Calm   2 mph 62% 0 in 0 W/m2
03:53 57.9 °F 45 °F 30.2 in West 0.9 mph 1 mph 62% 0 in 0 W/m2
03:58 57.7 °F 45.3 °F 30.2 in West 0.9 mph 1 mph 63% 0 in 0 W/m2
04:03 57.7 °F 45.3 °F 30.2 in West 2.9 mph 3 mph 63% 0 in 0 W/m2
04:08 57.7 °F 45.3 °F 30.2 in Calm   1 mph 63% 0 in 0 W/m2
04:13 57.9 °F 45.3 °F 30.2 in WNW 2 mph 2 mph 63% 0 in 0 W/m2
04:18 58.1 °F 45.1 °F 30.2 in WNW 0.9 mph 2 mph 62% 0 in 0 W/m2
04:23 57.9 °F 45 °F 30.2 in West 0.9 mph 2 mph 62% 0 in 0 W/m2
04:28 57.9 °F 45.3 °F 30.2 in West 0.9 mph 2 mph 63% 0 in 0 W/m2
04:33 57.7 °F 45.3 °F 30.2 in South 0.9 mph 1 mph 63% 0 in 0 W/m2
04:38 57.6 °F 45.1 °F 30.2 in South 0.9 mph 2 mph 63% 0 in 0 W/m2
04:43 57.4 °F 45 °F 30.2 in South 2 mph 2 mph 63% 0 in 0 W/m2
04:48 57 °F 45 °F 30.2 in Calm   1 mph 64% 0 in 0 W/m2
04:53 56.8 °F 44.8 °F 30.2 in South 0.9 mph 2 mph 64% 0 in 0 W/m2
04:58 56.7 °F 45 °F 30.2 in Calm   2 mph 65% 0 in 0 W/m2
05:03 56.5 °F 44.8 °F 30.2 in Calm   2 mph 65% 0 in 0 W/m2
05:08 56.7 °F 45 °F 30.2 in WSW 2 mph 2 mph 65% 0 in 0 W/m2
05:13 56.7 °F 45 °F 30.2 in West 2 mph 2 mph 65% 0 in 0 W/m2
05:18 57 °F 45 °F 30.2 in South 2 mph 4 mph 64% 0 in 0 W/m2
05:23 57 °F 45 °F 30.2 in Calm   1 mph 64% 0 in 0 W/m2
05:28 57 °F 45.3 °F 30.2 in South 0.9 mph 4 mph 65% 0 in 0 W/m2
05:33 56.8 °F 45.1 °F 30.2 in Calm   1 mph 65% 0 in 0 W/m2
05:38 56.8 °F 45.1 °F 30.2 in West 0.9 mph 2 mph 65% 0 in 0 W/m2
05:43 56.7 °F 45.5 °F 30.2 in Calm   1 mph 66% 0 in 0 W/m2
05:49 56.5 °F 45.3 °F 30.2 in Calm   2 mph 66% 0 in 0 W/m2
05:54 56.5 °F 45.3 °F 30.2 in Calm   2 mph 66% 0 in 0 W/m2
05:59 56.3 °F 45.5 °F 30.2 in NW 2 mph 4 mph 67% 0 in 5 W/m2
06:04 56.5 °F 45.7 °F 30.2 in West 2 mph 4 mph 67% 0 in 7 W/m2
06:09 56.5 °F 45.7 °F 30.2 in WNW 2.9 mph 3 mph 67% 0 in 9 W/m2
06:14 56.5 °F 45.7 °F 30.2 in West 0.9 mph 3 mph 67% 0 in 11 W/m2
06:19 56.7 °F 45.9 °F 30.2 in WNW 2.9 mph 3 mph 67% 0 in 12 W/m2
06:24 56.7 °F 45.9 °F 30.2 in WNW 0.9 mph 2 mph 67% 0 in 14 W/m2
06:29 56.7 °F 46.2 °F 30.2 in Calm   1 mph 68% 0 in 18 W/m2
06:34 56.7 °F 46.2 °F 30.2 in WNW 0.9 mph 2 mph 68% 0 in 19 W/m2
06:39 56.7 °F 46.2 °F 30.2 in NNW 0.9 mph 2 mph 68% 0 in 21 W/m2
06:44 56.7 °F 46.2 °F 30.2 in NNW 0.9 mph 3 mph 68% 0 in 23 W/m2
06:49 56.8 °F 46.4 °F 30.2 in WSW 2.9 mph 4 mph 68% 0 in 23 W/m2
06:54 56.8 °F 46.4 °F 30.2 in West 0.9 mph 2 mph 68% 0 in 25 W/m2
06:59 56.8 °F 46.4 °F 30.2 in North 2 mph 2 mph 68% 0 in 26 W/m2
07:04 56.8 °F 46.4 °F 30.2 in SSW 2 mph 2 mph 68% 0 in 28 W/m2
07:09 56.8 °F 46.4 °F 30.2 in NE 2.9 mph 4 mph 68% 0 in 28 W/m2
07:14 57 °F 46.6 °F 30.2 in West 2 mph 3 mph 68% 0 in 30 W/m2
07:19 57.2 °F 46.8 °F 30.2 in NNE 2 mph 4 mph 68% 0 in 32 W/m2
07:24 57.4 °F 46.9 °F 30.2 in NE 0.9 mph 2 mph 68% 0 in 32 W/m2
07:29 57.4 °F 46.9 °F 30.2 in NNE 0.9 mph 7 mph 68% 0 in 33 W/m2
07:34 57.6 °F 47.1 °F 30.2 in NW 0.9 mph 2 mph 68% 0 in 33 W/m2
07:39 57.6 °F 47.1 °F 30.2 in North 4 mph 4 mph 68% 0 in 35 W/m2
07:44 57.7 °F 47.3 °F 30.2 in South 0.9 mph 4 mph 68% 0 in 35 W/m2
07:49 57.9 °F 47.5 °F 30.2 in WSW 0.9 mph 3 mph 68% 0 in 37 W/m2
07:54 57.9 °F 47.5 °F 30.2 in North 4 mph 4 mph 68% 0 in 44 W/m2
07:59 58.3 °F 47.8 °F 30.2 in Calm   1 mph 68% 0 in 214 W/m2
08:04 58.6 °F 48.2 °F 30.2 in Calm   2 mph 68% 0 in 234 W/m2
08:09 59.2 °F 48.2 °F 30.2 in NE 0.9 mph 2 mph 67% 0 in 250 W/m2
08:14 59.5 °F 48.2 °F 30.2 in NNW 2.9 mph 3 mph 66% 0 in 262 W/m2
08:19 60.1 °F 48.2 °F 30.2 in ENE 0.9 mph 2 mph 65% 0 in 278 W/m2
08:24 60.4 °F 48.6 °F 30.2 in Calm   4 mph 65% 0 in 269 W/m2
08:29 60.8 °F 48.6 °F 30.2 in NNE 0.9 mph 5 mph 64% 0 in 165 W/m2
08:34 61.5 °F 48.7 °F 30.2 in NE 0.9 mph 4 mph 63% 0 in 56 W/m2
08:39 61.7 °F 48.6 °F 30.2 in Calm   5 mph 62% 0 in 47 W/m2
08:44 61.9 °F 49.1 °F 30.2 in NE 2 mph 3 mph 63% 0 in 47 W/m2
08:49 62.2 °F 49.1 °F 30.2 in SE 2 mph 3 mph 62% 0 in 46 W/m2
08:54 62.8 °F 49.6 °F 30.2 in ESE 2 mph 2 mph 62% 0 in 47 W/m2
08:59 63.1 °F 49.5 °F 30.2 in NE 2 mph 3 mph 61% 0 in 47 W/m2
09:04 63.7 °F 49.5 °F 30.2 in Calm   2 mph 60% 0 in 49 W/m2
09:09 63.9 °F 49.6 °F 30.2 in NNW 2 mph 7 mph 60% 0 in 51 W/m2
09:14 63.9 °F 49.3 °F 30.2 in NNW 0.9 mph 2 mph 59% 0 in 56 W/m2
09:19 63.9 °F 50.2 °F 30.2 in North 0.9 mph 6 mph 61% 0 in 234 W/m2
09:24 64.2 °F 49.6 °F 30.2 in East 0.9 mph 4 mph 59% 0 in 427 W/m2
09:29 64.9 °F 50.2 °F 30.2 in SE 0.9 mph 3 mph 59% 0 in 466 W/m2
09:34 65.3 °F 50.2 °F 30.2 in ESE 0.9 mph 2 mph 58% 0 in 483 W/m2
09:39 65.8 °F 50.2 °F 30.2 in ESE 0.9 mph 2 mph 57% 0 in 510 W/m2
09:44 66.2 °F 50 °F 30.2 in ENE 2 mph 4 mph 56% 0 in 503 W/m2
09:49 66.6 °F 49.8 °F 30.2 in ENE 2 mph 7 mph 55% 0 in 534 W/m2
09:54 67.1 °F 49.8 °F 30.2 in ESE 0.9 mph 6 mph 54% 0 in 482 W/m2
09:59 67.5 °F 49.3 °F 30.2 in ENE 0.9 mph 7 mph 52% 0 in 519 W/m2
10:04 67.5 °F 49.3 °F 30.2 in ESE 4 mph 5 mph 52% 0 in 121 W/m2
10:09 67.8 °F 49.6 °F 30.2 in SSE 2.9 mph 6 mph 52% 0 in 121 W/m2
10:14 67.8 °F 49.6 °F 30.2 in ESE 0.9 mph 3 mph 52% 0 in 527 W/m2
10:19 68.2 °F 49.3 °F 30.1 in ENE 0.9 mph 4 mph 51% 0 in 538 W/m2
10:24 68.4 °F 49.5 °F 30.1 in NE 2 mph 7 mph 51% 0 in 603 W/m2
10:29 68.5 °F 49.6 °F 30.1 in NE 0.9 mph 1 mph 51% 0 in 550 W/m2
10:34 69.4 °F 49.5 °F 30.1 in NE 4.9 mph 7 mph 49% 0 in 603 W/m2
10:39 70 °F 49.5 °F 30.1 in NW 0.9 mph 7 mph 48% 0 in 652 W/m2
10:44 69.4 °F 48.9 °F 30.1 in Calm   5 mph 48% 0 in 638 W/m2
10:49 69.6 °F 49.1 °F 30.1 in East 0.9 mph 8 mph 48% 0 in 673 W/m2
10:54 69.8 °F 49.8 °F 30.1 in ENE 0.9 mph 6 mph 49% 0 in 666 W/m2
10:59 70 °F 48.7 °F 30.1 in ENE 4 mph 8 mph 47% 0 in 654 W/m2
11:04 70.2 °F 50.2 °F 30.1 in ESE 0.9 mph 3 mph 49% 0 in 689 W/m2
11:09 70.5 °F 49.3 °F 30.1 in NNE 2 mph 3 mph 47% 0 in 696 W/m2
11:14 70.9 °F 49.1 °F 30.1 in ESE 2.9 mph 4 mph 46% 0 in 705 W/m2
11:19 71.1 °F 49.8 °F 30.1 in Calm   5 mph 47% 0 in 717 W/m2
11:24 71.4 °F 49.6 °F 30.1 in Calm   1 mph 46% 0 in 735 W/m2
11:29 71.8 °F 49.3 °F 30.1 in ENE 6 mph 9 mph 45% 0 in 738 W/m2
11:34 72.1 °F 49.6 °F 30.1 in SE 2 mph 3 mph 45% 0 in 763 W/m2
11:39 72.3 °F 48.6 °F 30.1 in ESE 2.9 mph 9 mph 43% 0 in 770 W/m2
11:44 72.7 °F 48.2 °F 30.1 in ENE 2.9 mph 6 mph 42% 0 in 782 W/m2
11:49 73.2 °F 48 °F 30.1 in North 2 mph 3 mph 41% 0 in 779 W/m2
11:54 73.6 °F 48.4 °F 30.1 in SSW 2 mph 6 mph 41% 0 in 796 W/m2
11:59 74.1 °F 48.9 °F 30.1 in ESE 4.9 mph 6 mph 41% 0 in 805 W/m2
12:04 74.3 °F 48.4 °F 30.1 in ENE 2.9 mph 4 mph 40% 0 in 803 W/m2
12:09 74.5 °F 47.8 °F 30.1 in NNW 0.9 mph 3 mph 39% 0 in 821 W/m2
12:14 74.5 °F 47.1 °F 30.1 in Calm   4 mph 38% 0 in 816 W/m2
12:19 74.8 °F 48.2 °F 30.1 in ESE 4 mph 4 mph 39% 0 in 765 W/m2
12:24 75.4 °F 48.7 °F 30.1 in NNE 2 mph 4 mph 39% 0 in 817 W/m2
12:29 75.4 °F 48 °F 30.1 in NE 4 mph 7 mph 38% 0 in 823 W/m2
12:35 75.4 °F 48 °F 30.1 in NNE 2 mph 4 mph 38% 0 in 798 W/m2
12:40 75.6 °F 48.2 °F 30.1 in NE 4.9 mph 6 mph 38% 0 in 846 W/m2
12:45 76.1 °F 48 °F 30.1 in NNW 2 mph 3 mph 37% 0 in 819 W/m2
12:50 76.3 °F 48 °F 30.1 in SSE 2 mph 2 mph 37% 0 in 838 W/m2
12:55 76.8 °F 49.3 °F 30.1 in NW 2.9 mph 6 mph 38% 0 in 877 W/m2
13:00 77.5 °F 47.7 °F 30.1 in ESE 2 mph 8 mph 35% 0 in 905 W/m2
13:05 77.5 °F 47.7 °F 30.1 in NE 2.9 mph 3 mph 35% 0 in 891 W/m2
13:10 77.4 °F 47.5 °F 30.1 in SE 2 mph 8 mph 35% 0 in 904 W/m2
13:15 77.5 °F 47.7 °F 30.1 in ENE 2 mph 6 mph 35% 0 in 854 W/m2
13:20 77.7 °F 47.8 °F 30.1 in ENE 4.9 mph 6 mph 35% 0 in 803 W/m2
13:25 77.9 °F 48 °F 30.1 in ENE 2.9 mph 3 mph 35% 0 in 872 W/m2
13:30 77.5 °F 47.7 °F 30.1 in WNW 2 mph 6 mph 35% 0 in 888 W/m2
13:35 77.7 °F 48.6 °F 30.1 in Calm   1 mph 36% 0 in 879 W/m2
13:40 78.1 °F 47.5 °F 30.1 in WSW 4 mph 5 mph 34% 0 in 881 W/m2
13:45 77.9 °F 47.3 °F 30.1 in WNW 2 mph 3 mph 34% 0 in 860 W/m2
13:50 77.9 °F 48 °F 30.1 in NNW 2.9 mph 3 mph 35% 0 in 875 W/m2
13:55 78.1 °F 47.5 °F 30.1 in NW 0.9 mph 4 mph 34% 0 in 891 W/m2
14:00 77.9 °F 46.4 °F 30.1 in NW 0.9 mph 7 mph 33% 0 in 875 W/m2
14:05 78.3 °F 47.7 °F 30.1 in NNW 4 mph 4 mph 34% 0 in 904 W/m2
14:10 78.3 °F 46.8 °F 30.1 in WNW 4.9 mph 7 mph 33% 0 in 898 W/m2
14:15 78.1 °F 46.6 °F 30.1 in West 2 mph 4 mph 33% 0 in 888 W/m2
14:20 78.3 °F 46.8 °F 30.1 in West 2.9 mph 4 mph 33% 0 in 721 W/m2
14:25 78.3 °F 46 °F 30.1 in West 2 mph 7 mph 32% 0 in 788 W/m2
14:30 78.1 °F 45.9 °F 30.1 in WSW 4 mph 5 mph 32% 0 in 879 W/m2
14:35 78.4 °F 47.7 °F 30.1 in ESE 2 mph 7 mph 34% 0 in 868 W/m2
14:40 79 °F 46.6 °F 30.1 in ENE 0.9 mph 2 mph 32% 0 in 819 W/m2
14:45 79.3 °F 46.9 °F 30.1 in NW 0.9 mph 5 mph 32% 0 in 882 W/m2
14:50 79.9 °F 47.3 °F 30.1 in ENE 2.9 mph 6 mph 32% 0 in 905 W/m2
14:55 80.6 °F 48 °F 30.1 in NNW 2.9 mph 6 mph 32% 0 in 886 W/m2
15:00 80.2 °F 47.7 °F 30.1 in NE 4 mph 7 mph 32% 0 in 847 W/m2
15:05 80.4 °F 47.8 °F 30.1 in West 2.9 mph 5 mph 32% 0 in 745 W/m2
15:10 80.4 °F 46.9 °F 30.1 in NW 2.9 mph 3 mph 31% 0 in 698 W/m2
15:15 80.2 °F 46.9 °F 30.1 in WSW 4.9 mph 5 mph 31% 0 in 701 W/m2
15:20 79.9 °F 47.3 °F 30.1 in WNW 2 mph 3 mph 32% 0 in 694 W/m2
15:25 79.9 °F 47.3 °F 30.1 in ESE 4 mph 7 mph 32% 0 in 789 W/m2
15:30 80.1 °F 46.8 °F 30.1 in East 2 mph 7 mph 31% 0 in 849 W/m2
15:35 80.6 °F 48 °F 30.1 in ENE 2 mph 4 mph 32% 0 in 847 W/m2
15:40 81.3 °F 47.8 °F 30.1 in North 0.9 mph 3 mph 31% 0 in 833 W/m2
15:45 82 °F 48.4 °F 30.1 in North 0.9 mph 5 mph 31% 0 in 842 W/m2
15:50 82.2 °F 48.6 °F 30.1 in NE 2.9 mph 8 mph 31% 0 in 654 W/m2
15:55 81.9 °F 47.3 °F 30.1 in NE 4.9 mph 9 mph 30% 0 in 740 W/m2
16:00 81.9 °F 48.2 °F 30.1 in ENE 4.9 mph 5 mph 31% 0 in 763 W/m2
16:05 81.9 °F 46.4 °F 30.1 in North 2.9 mph 8 mph 29% 0 in 798 W/m2
16:10 81.1 °F 46.8 °F 30.1 in SSE 2 mph 2 mph 30% 0 in 791 W/m2
16:16 81.3 °F 46.9 °F 30.1 in ESE 0.9 mph 5 mph 30% 0 in 714 W/m2
16:21 81.5 °F 48.7 °F 30 in ENE 2 mph 3 mph 32% 0 in 705 W/m2
16:26 81.3 °F 46.9 °F 30 in NNE 2 mph 9 mph 30% 0 in 476 W/m2
16:31 81.1 °F 47.7 °F 30 in WNW 2.9 mph 4 mph 31% 0 in 722 W/m2
16:36 81.7 °F 47.3 °F 30 in NW 2.9 mph 9 mph 30% 0 in 687 W/m2
16:41 81.7 °F 48 °F 30 in NW 2.9 mph 4 mph 31% 0 in 599 W/m2
16:46 81.5 °F 47.1 °F 30 in NNW 2.9 mph 4 mph 30% 0 in 592 W/m2
16:51 81.7 °F 47.3 °F 30 in North 2 mph 6 mph 30% 0 in 580 W/m2
16:56 81.7 °F 47.3 °F 30 in Calm   3 mph 30% 0 in 496 W/m2
17:01 81.9 °F 47.3 °F 30 in Calm   3 mph 30% 0 in 436 W/m2
17:06 81.7 °F 46.4 °F 30 in NE 0.9 mph 2 mph 29% 0 in 578 W/m2
17:11 81.7 °F 47.3 °F 30 in NW 0.9 mph 5 mph 30% 0 in 598 W/m2
17:16 81.9 °F 47.3 °F 30 in ESE 2 mph 3 mph 30% 0 in 615 W/m2
17:21 81.9 °F 47.3 °F 30 in NNW 4 mph 12 mph 30% 0 in 626 W/m2
17:26 81.9 °F 46.4 °F 30 in North 4 mph 5 mph 29% 0 in 547 W/m2
17:31 81.5 °F 47.1 °F 30 in NW 2 mph 10 mph 30% 0 in 503 W/m2
17:36 81.1 °F 47.7 °F 30 in ENE 0.9 mph 2 mph 31% 0 in 234 W/m2
17:41 80.8 °F 46.4 °F 30 in WNW 2 mph 7 mph 30% 0 in 396 W/m2
17:46 81 °F 47.5 °F 30 in SSW 0.9 mph 3 mph 31% 0 in 605 W/m2
17:51 81.7 °F 47.3 °F 30 in East 2 mph 5 mph 30% 0 in 577 W/m2
17:56 82.2 °F 47.7 °F 30 in ENE 4.9 mph 5 mph 30% 0 in 471 W/m2
18:01 82 °F 46.6 °F 30 in North 2 mph 3 mph 29% 0 in 339 W/m2
18:06 81.9 °F 46.4 °F 30 in ENE 0.9 mph 1 mph 29% 0 in 534 W/m2
18:11 82 °F 46.6 °F 30 in ENE 2.9 mph 5 mph 29% 0 in 315 W/m2
18:16 81.9 °F 46.4 °F 30 in ENE 0.9 mph 5 mph 29% 0 in 343 W/m2
18:21 81.7 °F 46.4 °F 30 in ENE 4 mph 6 mph 29% 0 in 499 W/m2
18:26 81.7 °F 46.4 °F 30 in ENE 8.1 mph 9 mph 29% 0 in 452 W/m2
18:31 81.7 °F 46.4 °F 30 in North 4 mph 4 mph 29% 0 in 438 W/m2
18:36 81.3 °F 46 °F 30 in NNW 0.9 mph 4 mph 29% 0 in 427 W/m2
18:41 81.3 °F 46 °F 30 in NNW 4 mph 6 mph 29% 0 in 383 W/m2
18:46 81.7 °F 46.4 °F 30 in NNW 2 mph 4 mph 29% 0 in 348 W/m2
18:51 81.9 °F 46.4 °F 30 in WNW 2 mph 6 mph 29% 0 in 311 W/m2
18:56 81.9 °F 45.5 °F 30 in SW 0.9 mph 3 mph 28% 0 in 290 W/m2
19:01 81.7 °F 46.4 °F 30 in NNW 0.9 mph 3 mph 29% 0 in 272 W/m2
19:06 81.7 °F 45.3 °F 30 in ESE 2.9 mph 3 mph 28% 0 in 244 W/m2
19:11 81.5 °F 46.2 °F 30 in NE 2 mph 5 mph 29% 0 in 227 W/m2
19:16 81.3 °F 45.1 °F 30 in ENE 2.9 mph 4 mph 28% 0 in 220 W/m2
19:21 81.1 °F 45 °F 30 in ENE 4.9 mph 5 mph 28% 0 in 223 W/m2
19:26 81.1 °F 45.9 °F 30 in WNW 2 mph 4 mph 29% 0 in 237 W/m2
19:31 81 °F 45.7 °F 30 in WNW 2.9 mph 4 mph 29% 0 in 246 W/m2
19:36 80.8 °F 45.5 °F 30 in NE 0.9 mph 5 mph 29% 0 in 241 W/m2
19:41 80.8 °F 45.5 °F 30 in NNW 2.9 mph 4 mph 29% 0 in 229 W/m2
19:46 80.8 °F 46.4 °F 30 in NW 2 mph 3 mph 30% 0 in 214 W/m2
19:51 80.8 °F 46.4 °F 30 in ENE 2 mph 2 mph 30% 0 in 192 W/m2
19:56 80.8 °F 46.4 °F 30 in Calm   2 mph 30% 0 in 165 W/m2
20:01 81 °F 45.7 °F 30 in NNW 2 mph 4 mph 29% 0 in 137 W/m2
20:06 80.4 °F 45.3 °F 30 in WNW 0.9 mph 3 mph 29% 0 in 127 W/m2
20:11 80.1 °F 46.8 °F 30 in ESE 2 mph 3 mph 31% 0 in 123 W/m2
20:16 79.9 °F 46.6 °F 30 in NW 2 mph 4 mph 31% 0 in 118 W/m2
20:21 79.5 °F 46.2 °F 30 in WNW 0.9 mph 2 mph 31% 0 in 104 W/m2
20:26 79.2 °F 45.9 °F 30 in NNW 0.9 mph 4 mph 31% 0 in 93 W/m2
20:31 78.8 °F 46.4 °F 30 in NE 0.9 mph 3 mph 32% 0 in 79 W/m2
20:36 78.3 °F 46.8 °F 30 in NW 2 mph 4 mph 33% 0 in 70 W/m2
20:41 77.9 °F 46.4 °F 30 in NNW 2 mph 3 mph 33% 0 in 51 W/m2
20:46 77.7 °F 47.1 °F 30 in NNW 0.9 mph 1 mph 34% 0 in 47 W/m2
20:51 77.5 °F 46.9 °F 30 in Calm   2 mph 34% 0 in 33 W/m2
20:56 77.2 °F 46.6 °F 30 in WNW 0.9 mph 3 mph 34% 0 in 32 W/m2
21:01 77 °F 47.3 °F 30 in NW 0.9 mph 2 mph 35% 0 in 26 W/m2
21:06 76.6 °F 47.7 °F 30 in NW 0.9 mph 1 mph 36% 0 in 19 W/m2
21:11 75.9 °F 47.8 °F 30 in WNW 0.9 mph 2 mph 37% 0 in 12 W/m2
21:16 75 °F 48.4 °F 30 in Calm   1 mph 39% 0 in 11 W/m2
21:21 74.1 °F 48.2 °F 30 in Calm   2 mph 40% 0 in 7 W/m2
21:26 73.4 °F 47.7 °F 30 in WNW 0.9 mph 1 mph 40% 0 in 5 W/m2
21:32 72.9 °F 47.8 °F 30 in WSW 2 mph 3 mph 41% 0 in 0 W/m2
21:37 72.1 °F 47.8 °F 30 in West 2 mph 4 mph 42% 0 in 0 W/m2
21:42 72 °F 48.2 °F 30 in WNW 0.9 mph 3 mph 43% 0 in 0 W/m2
21:47 71.4 °F 48.4 °F 30 in West 2.9 mph 4 mph 44% 0 in 0 W/m2
21:52 71.1 °F 48.6 °F 30 in West 2 mph 2 mph 45% 0 in 0 W/m2
21:57 70.9 °F 49.1 °F 30 in West 2.9 mph 4 mph 46% 0 in 0 W/m2
22:02 70.7 °F 49.5 °F 30 in NW 2.9 mph 7 mph 47% 0 in 0 W/m2
22:07 70.9 °F 50.2 °F 30 in North 4 mph 9 mph 48% 0 in 0 W/m2
22:12 71.1 °F 50.4 °F 30 in NW 2 mph 5 mph 48% 0 in 0 W/m2
22:17 71.1 °F 50.9 °F 30 in WNW 9 mph 9 mph 49% 0 in 0 W/m2
22:22 70.9 °F 50.7 °F 30 in West 2.9 mph 5 mph 49% 0 in 0 W/m2
22:27 70.7 °F 51.1 °F 30 in NNW 2 mph 10 mph 50% 0 in 0 W/m2
22:32 70.5 °F 50.9 °F 30 in WNW 2 mph 5 mph 50% 0 in 0 W/m2
22:37 70.5 °F 51.4 °F 30 in NW 0.9 mph 8 mph 51% 0 in 0 W/m2
22:42 70.3 °F 51.8 °F 30 in West 2 mph 4 mph 52% 0 in 0 W/m2
22:47 70.2 °F 51.8 °F 30 in West 2.9 mph 4 mph 52% 0 in 0 W/m2
22:52 70 °F 52 °F 30 in NW 2.9 mph 7 mph 53% 0 in 0 W/m2
22:57 69.6 °F 51.8 °F 30 in WSW 4 mph 4 mph 53% 0 in 0 W/m2
23:02 69.4 °F 52.2 °F 30 in WNW 2.9 mph 7 mph 54% 0 in 0 W/m2
23:07 69.3 °F 52 °F 30 in WNW 2 mph 4 mph 54% 0 in 0 W/m2
23:12 69.1 °F 52.2 °F 30 in WNW 2 mph 3 mph 55% 0 in 0 W/m2
23:17 68.7 °F 52.3 °F 30 in Calm   4 mph 56% 0 in 0 W/m2
23:22 68.5 °F 52.2 °F 30 in NNW 0.9 mph 4 mph 56% 0 in 0 W/m2
23:27 68.5 °F 52.2 °F 30 in NW 0.9 mph 4 mph 56% 0 in 0 W/m2
23:32 68.5 °F 52.2 °F 30 in North 2.9 mph 9 mph 56% 0 in 0 W/m2
23:37 68.4 °F 52.5 °F 30 in NW 2 mph 3 mph 57% 0 in 0 W/m2
23:42 68.2 °F 52.3 °F 30 in Calm   4 mph 57% 0 in 0 W/m2
23:47 67.8 °F 52 °F 30 in NNW 2 mph 7 mph 57% 0 in 0 W/m2
23:57 67.5 °F 52.2 °F 30.1 in NNW 2 mph 4 mph 58% 0 in 0 W/m2
Juneau County Weather
Compliments of Weather Underground - 4 mb